createdAt,value
2018-07-10T00:02:20.522Z,19.40
2018-07-10T00:04:59.161Z,19.30
2018-07-10T00:10:18.663Z,19.40
2018-07-10T00:12:47.071Z,19.40
2018-07-10T00:15:15.909Z,19.30
2018-07-10T00:17:44.182Z,19.20
2018-07-10T00:20:12.462Z,19.10
2018-07-10T00:22:40.666Z,19.10
2018-07-10T00:25:09.010Z,19.10
2018-07-10T00:27:37.200Z,19.00
2018-07-10T00:30:05.455Z,19.10
2018-07-10T00:32:33.818Z,19.10
2018-07-10T00:35:02.587Z,19.10
2018-07-10T00:37:31.576Z,19.00
2018-07-10T00:39:59.874Z,18.70
2018-07-10T00:42:28.109Z,18.70
2018-07-10T00:44:56.322Z,18.70
2018-07-10T00:47:25.219Z,18.70
2018-07-10T00:49:53.502Z,18.60
2018-07-10T00:52:29.293Z,18.50
2018-07-10T00:54:57.635Z,18.40
2018-07-10T00:57:25.863Z,18.40
2018-07-10T00:59:54.411Z,18.40
2018-07-10T01:02:22.910Z,18.40
2018-07-10T01:04:51.352Z,18.50
2018-07-10T01:07:19.501Z,18.40
2018-07-10T01:09:47.689Z,18.50
2018-07-10T01:12:15.861Z,18.40
2018-07-10T01:14:44.221Z,18.40
2018-07-10T01:17:12.556Z,18.40
2018-07-10T01:19:41.237Z,18.50
2018-07-10T01:22:09.441Z,18.50
2018-07-10T01:24:37.862Z,18.30
2018-07-10T01:27:06.548Z,18.30
2018-07-10T01:29:40.310Z,18.30
2018-07-10T01:32:08.852Z,18.30
2018-07-10T01:37:05.333Z,18.30
2018-07-10T01:39:33.722Z,18.20
2018-07-10T01:42:02.319Z,18.30
2018-07-10T01:44:30.479Z,18.30
2018-07-10T01:46:58.730Z,18.20
2018-07-10T01:49:27.311Z,18.20
2018-07-10T01:51:56.087Z,18.10
2018-07-10T01:54:24.829Z,18.00
2018-07-10T01:56:53.004Z,18.00
2018-07-10T01:59:22.009Z,17.90
2018-07-10T02:01:50.609Z,17.80
2018-07-10T02:04:19.176Z,17.80
2018-07-10T02:06:47.343Z,17.90
2018-07-10T02:09:15.521Z,17.90
2018-07-10T02:11:43.805Z,18.00
2018-07-10T02:14:15.393Z,17.90
2018-07-10T02:16:44.609Z,17.90
2018-07-10T02:19:13.101Z,17.90
2018-07-10T02:21:41.275Z,17.80
2018-07-10T02:24:10.878Z,17.80
2018-07-10T02:26:41.190Z,17.80
2018-07-10T02:29:09.346Z,17.60
2018-07-10T02:31:37.790Z,17.70
2018-07-10T02:34:06.807Z,17.60
2018-07-10T02:36:36.435Z,17.60
2018-07-10T02:39:05.661Z,17.70
2018-07-10T02:41:34.879Z,17.70
2018-07-10T02:44:04.149Z,17.50
2018-07-10T02:46:34.301Z,17.50
2018-07-10T02:49:12.593Z,17.60
2018-07-10T02:51:59.550Z,17.50
2018-07-10T02:54:31.601Z,17.50
2018-07-10T02:57:00.747Z,17.40
2018-07-10T02:59:35.846Z,17.40
2018-07-10T03:02:04.721Z,17.40
2018-07-10T03:04:34.898Z,17.40
2018-07-10T03:07:03.266Z,17.40
2018-07-10T03:09:31.496Z,17.40
2018-07-10T03:12:01.214Z,17.40
2018-07-10T03:14:29.890Z,17.30
2018-07-10T03:17:00.162Z,17.40
2018-07-10T03:19:30.707Z,17.30
2018-07-10T03:22:00.719Z,17.40
2018-07-10T03:24:30.627Z,17.30
2018-07-10T03:26:58.816Z,17.20
2018-07-10T03:29:28.567Z,17.10
2018-07-10T03:31:56.782Z,17.10
2018-07-10T03:34:25.250Z,17.00
2018-07-10T03:36:54.917Z,17.10
2018-07-10T03:39:24.487Z,16.90
2018-07-10T03:41:52.658Z,16.90
2018-07-10T03:44:20.909Z,16.90
2018-07-10T03:46:51.337Z,17.00
2018-07-10T03:49:19.776Z,17.00
2018-07-10T03:51:48.058Z,17.10
2018-07-10T03:54:16.626Z,17.00
2018-07-10T03:56:45.940Z,17.00
2018-07-10T03:59:14.263Z,17.10
2018-07-10T04:01:42.470Z,17.10
2018-07-10T04:04:11.567Z,17.10
2018-07-10T04:06:41.922Z,17.00
2018-07-10T04:09:12.892Z,17.00
2018-07-10T04:11:48.052Z,16.90
2018-07-10T04:14:19.355Z,17.00
2018-07-10T04:16:47.625Z,17.00
2018-07-10T04:19:16.674Z,17.10
2018-07-10T04:21:53.122Z,17.20
2018-07-10T04:24:22.569Z,17.30
2018-07-10T04:27:29.487Z,17.30
2018-07-10T04:30:02.142Z,17.30
2018-07-10T04:32:34.534Z,17.40
2018-07-10T04:35:02.763Z,17.30
2018-07-10T04:37:30.990Z,17.40
2018-07-10T04:40:00.808Z,17.40
2018-07-10T04:42:32.167Z,17.50
2018-07-10T04:45:06.318Z,17.60
2018-07-10T04:47:39.866Z,17.80
2018-07-10T04:50:17.225Z,17.70
2018-07-10T04:53:04.141Z,17.70
2018-07-10T04:55:34.327Z,17.80
2018-07-10T04:58:04.677Z,17.90
2018-07-10T05:00:33.774Z,18.00
2018-07-10T05:03:02.479Z,18.00
2018-07-10T05:05:32.500Z,17.90
2018-07-10T05:08:02.365Z,17.90
2018-07-10T05:10:31.137Z,17.90
2018-07-10T05:12:59.442Z,17.80
2018-07-10T05:15:27.643Z,17.90
2018-07-10T05:17:56.594Z,17.90
2018-07-10T05:20:25.858Z,17.90
2018-07-10T05:22:54.104Z,18.00
2018-07-10T05:25:23.662Z,18.10
2018-07-10T05:27:51.906Z,18.20
2018-07-10T05:30:20.762Z,18.30
2018-07-10T05:32:48.982Z,18.50
2018-07-10T05:35:18.183Z,18.50
2018-07-10T05:37:47.473Z,18.60
2018-07-10T05:40:15.848Z,18.60
2018-07-10T05:42:47.069Z,18.70
2018-07-10T05:45:22.051Z,18.70
2018-07-10T05:47:51.406Z,18.60
2018-07-10T05:50:19.585Z,18.70
2018-07-10T05:52:47.786Z,18.80
2018-07-10T05:55:19.846Z,19.00
2018-07-10T05:57:48.457Z,19.10
2018-07-10T06:00:16.823Z,19.10
2018-07-10T06:02:45.014Z,19.20
2018-07-10T06:05:13.881Z,19.20
2018-07-10T06:07:42.119Z,19.20
2018-07-10T06:10:11.258Z,19.30
2018-07-10T06:12:39.446Z,19.30
2018-07-10T06:15:07.687Z,19.30
2018-07-10T06:17:35.925Z,19.20
2018-07-10T06:20:04.304Z,19.30
2018-07-10T06:22:33.547Z,19.30
2018-07-10T06:25:05.101Z,19.50
2018-07-10T06:27:45.849Z,19.50
2018-07-10T06:30:14.223Z,19.50
2018-07-10T06:32:53.549Z,19.50
2018-07-10T06:35:30.649Z,19.60
2018-07-10T06:37:58.999Z,19.70
2018-07-10T06:40:27.143Z,19.70
2018-07-10T06:43:04.835Z,19.70
2018-07-10T06:45:33.066Z,19.80
2018-07-10T06:48:02.906Z,20.00
2018-07-10T06:50:32.974Z,20.00
2018-07-10T06:53:02.122Z,20.10
2018-07-10T06:55:30.769Z,20.20
2018-07-10T06:57:59.349Z,20.20
2018-07-10T07:00:27.970Z,20.30
2018-07-10T07:02:56.125Z,20.30
2018-07-10T07:05:24.317Z,20.30
2018-07-10T07:07:52.871Z,20.50
2018-07-10T07:10:21.078Z,20.40
2018-07-10T07:12:49.282Z,20.60
2018-07-10T07:15:20.411Z,20.70
2018-07-10T07:17:51.021Z,20.80
2018-07-10T07:20:21.061Z,21.00
2018-07-10T07:22:49.718Z,21.10
2018-07-10T07:25:18.027Z,21.10
2018-07-10T07:27:46.221Z,21.30
2018-07-10T07:30:14.446Z,21.40
2018-07-10T07:32:42.904Z,21.50
2018-07-10T07:35:11.107Z,21.50
2018-07-10T07:37:40.657Z,21.60
2018-07-10T07:40:10.050Z,21.60
2018-07-10T07:42:38.737Z,21.70
2018-07-10T07:45:08.215Z,21.60
2018-07-10T07:47:36.422Z,21.60
2018-07-10T07:50:04.621Z,21.70
2018-07-10T07:52:33.059Z,22.00
2018-07-10T07:55:02.329Z,22.30
2018-07-10T07:57:30.794Z,22.30
2018-07-10T07:59:59.018Z,22.30
2018-07-10T08:02:27.215Z,22.30
2018-07-10T08:04:56.769Z,22.40
2018-07-10T08:07:25.723Z,22.30
2018-07-10T08:09:55.308Z,22.60
2018-07-10T08:12:24.598Z,22.40
2018-07-10T08:14:53.031Z,22.50
2018-07-10T08:17:22.917Z,22.30
2018-07-10T08:19:51.274Z,22.30
2018-07-10T08:22:19.531Z,22.40
2018-07-10T08:24:47.767Z,22.40
2018-07-10T08:27:16.404Z,22.50
2018-07-10T08:29:44.629Z,22.50
2018-07-10T08:32:12.832Z,22.50
2018-07-10T08:34:41.130Z,22.40
2018-07-10T08:37:09.913Z,22.50
2018-07-10T08:39:38.593Z,22.50
2018-07-10T08:42:07.053Z,22.60
2018-07-10T08:44:35.343Z,22.70
2018-07-10T08:47:04.083Z,22.80
2018-07-10T08:49:33.657Z,22.80
2018-07-10T08:52:02.151Z,22.70
2018-07-10T08:54:32.164Z,22.80
2018-07-10T08:57:01.427Z,22.90
2018-07-10T08:59:29.891Z,22.80
2018-07-10T09:01:58.214Z,22.80
2018-07-10T09:04:26.488Z,22.80
2018-07-10T09:06:55.467Z,22.70
2018-07-10T09:09:23.734Z,22.50
2018-07-10T09:11:52.056Z,22.60
2018-07-10T09:14:20.347Z,22.70
2018-07-10T09:16:48.510Z,22.70
2018-07-10T09:19:19.830Z,22.80
2018-07-10T09:21:51.654Z,22.80
2018-07-10T09:24:19.909Z,22.80
2018-07-10T09:26:50.063Z,22.80
2018-07-10T09:29:18.208Z,22.60
2018-07-10T09:31:46.498Z,22.50
2018-07-10T09:34:14.690Z,22.60
2018-07-10T09:36:42.848Z,22.70
2018-07-10T09:39:11.281Z,22.80
2018-07-10T09:41:39.431Z,22.80
2018-07-10T09:44:07.681Z,22.90
2018-07-10T09:46:35.734Z,23.00
2018-07-10T09:49:03.925Z,23.10
2018-07-10T09:51:32.135Z,23.10
2018-07-10T09:54:01.007Z,23.00
2018-07-10T09:56:29.190Z,23.00
2018-07-10T09:58:57.811Z,23.00
2018-07-10T10:01:27.664Z,23.00
2018-07-10T10:03:56.569Z,23.00
2018-07-10T10:06:25.136Z,22.90
2018-07-10T10:08:54.213Z,22.90
2018-07-10T10:11:22.636Z,23.10
2018-07-10T10:13:51.091Z,23.10
2018-07-10T10:16:19.303Z,23.00
2018-07-10T10:18:48.796Z,23.00
2018-07-10T10:21:17.320Z,23.00
2018-07-10T10:23:45.534Z,23.10
2018-07-10T10:26:14.282Z,23.10
2018-07-10T10:28:42.750Z,23.10
2018-07-10T10:31:10.993Z,23.20
2018-07-10T10:33:39.343Z,23.40
2018-07-10T10:36:07.655Z,23.60
2018-07-10T10:38:39.610Z,23.80
2018-07-10T10:41:07.808Z,23.90
2018-07-10T10:43:36.698Z,23.90
2018-07-10T10:46:04.975Z,23.90
2018-07-10T10:48:33.798Z,24.20
2018-07-10T10:51:02.071Z,24.20
2018-07-10T10:53:30.299Z,24.20
2018-07-10T10:55:58.651Z,24.20
2018-07-10T10:58:27.298Z,23.90
2018-07-10T11:00:55.567Z,23.80
2018-07-10T11:03:23.795Z,23.70
2018-07-10T11:05:52.395Z,23.70
2018-07-10T11:08:21.885Z,23.60
2018-07-10T11:10:50.546Z,23.50
2018-07-10T11:13:19.333Z,23.50
2018-07-10T11:15:48.782Z,23.40
2018-07-10T11:18:30.045Z,23.30
2018-07-10T11:21:03.054Z,23.50
2018-07-10T11:23:42.794Z,23.60
2018-07-10T11:26:18.517Z,23.70
2018-07-10T11:28:46.678Z,23.70
2018-07-10T11:31:14.868Z,23.90
2018-07-10T11:33:43.061Z,24.00
2018-07-10T11:36:11.296Z,24.10
2018-07-10T11:38:39.502Z,24.00
2018-07-10T11:41:07.758Z,24.10
2018-07-10T11:43:36.097Z,24.30
2018-07-10T11:46:04.253Z,24.50
2018-07-10T11:48:32.457Z,24.50
2018-07-10T11:51:00.746Z,24.60
2018-07-10T11:53:28.970Z,24.60
2018-07-10T11:55:57.117Z,24.70
2018-07-10T11:58:25.396Z,24.60
2018-07-10T12:00:53.574Z,24.70
2018-07-10T12:03:21.752Z,24.70
2018-07-10T12:05:50.835Z,24.80
2018-07-10T12:08:19.707Z,24.80
2018-07-10T12:10:57.810Z,24.60
2018-07-10T12:13:26.221Z,24.60
2018-07-10T12:15:54.495Z,24.80
2018-07-10T12:18:22.694Z,24.70
2018-07-10T12:20:50.983Z,24.50
2018-07-10T12:23:20.161Z,24.70
2018-07-10T12:25:48.511Z,24.80
2018-07-10T12:28:16.782Z,24.90
2018-07-10T12:30:45.142Z,25.00
2018-07-10T12:33:13.422Z,24.90
2018-07-10T12:35:41.902Z,24.70
2018-07-10T12:38:10.171Z,24.50
2018-07-10T12:40:38.662Z,24.30
2018-07-10T12:43:07.011Z,24.00
2018-07-10T12:45:35.241Z,24.00
2018-07-10T12:48:03.639Z,23.90
2018-07-10T12:50:31.864Z,24.10
2018-07-10T12:53:00.137Z,24.10
2018-07-10T12:55:28.904Z,24.10
2018-07-10T12:57:58.754Z,24.20
2018-07-10T13:00:28.239Z,24.20
2018-07-10T13:02:58.530Z,24.30
2018-07-10T13:05:30.600Z,24.30
2018-07-10T13:07:59.778Z,24.40
2018-07-10T13:10:28.031Z,24.40
2018-07-10T13:12:56.325Z,24.50
2018-07-10T13:15:25.492Z,24.40
2018-07-10T13:17:56.266Z,24.50
2018-07-10T13:20:24.548Z,24.50
2018-07-10T13:22:52.781Z,24.60
2018-07-10T13:25:21.012Z,24.50
2018-07-10T13:27:49.710Z,24.40
2018-07-10T13:30:18.143Z,24.50
2018-07-10T13:32:46.334Z,24.50
2018-07-10T13:35:14.573Z,24.10
2018-07-10T13:37:44.586Z,24.30
2018-07-10T13:40:12.842Z,24.50
2018-07-10T13:42:47.650Z,24.60
2018-07-10T13:45:17.026Z,24.60
2018-07-10T13:47:45.644Z,24.70
2018-07-10T13:50:21.806Z,24.70
2018-07-10T13:52:50.301Z,24.80
2018-07-10T13:55:18.746Z,24.90
2018-07-10T13:57:51.614Z,24.90
2018-07-10T14:00:20.300Z,24.70
2018-07-10T14:02:51.395Z,24.70
2018-07-10T14:05:19.596Z,24.80
2018-07-10T14:07:47.767Z,24.80
2018-07-10T14:10:15.923Z,25.00
2018-07-10T14:12:45.743Z,25.00
2018-07-10T14:15:13.996Z,25.00
2018-07-10T14:17:42.786Z,25.10
2018-07-10T14:20:12.237Z,25.10
2018-07-10T14:22:40.982Z,25.10
2018-07-10T14:25:09.158Z,25.10
2018-07-10T14:27:37.910Z,25.00
2018-07-10T14:30:06.210Z,24.90
2018-07-10T14:32:35.253Z,24.80
2018-07-10T14:35:03.466Z,24.80
2018-07-10T14:37:32.281Z,24.70
2018-07-10T14:40:00.698Z,24.70
2018-07-10T14:42:29.250Z,24.60
2018-07-10T14:45:03.054Z,24.50
2018-07-10T14:47:31.253Z,24.40
2018-07-10T14:49:59.410Z,24.40
2018-07-10T14:52:28.309Z,24.50
2018-07-10T14:54:58.529Z,24.40
2018-07-10T14:57:26.979Z,24.50
2018-07-10T14:59:55.692Z,24.80
2018-07-10T15:02:23.905Z,25.00
2018-07-10T15:04:52.049Z,24.70
2018-07-10T15:07:20.816Z,24.30
2018-07-10T15:09:49.015Z,24.30
2018-07-10T15:12:17.260Z,24.30
2018-07-10T15:14:45.522Z,24.40
2018-07-10T15:17:19.191Z,24.20
2018-07-10T15:19:47.340Z,24.30
2018-07-10T15:22:16.410Z,24.50
2018-07-10T15:24:45.314Z,24.50
2018-07-10T15:27:13.560Z,24.30
2018-07-10T15:29:41.707Z,24.20
2018-07-10T15:32:09.929Z,24.30
2018-07-10T15:34:40.139Z,24.40
2018-07-10T15:37:08.576Z,24.40
2018-07-10T15:39:36.768Z,24.50
2018-07-10T15:42:05.070Z,24.60
2018-07-10T15:44:35.232Z,24.70
2018-07-10T15:47:08.175Z,24.50
2018-07-10T15:49:37.057Z,24.30
2018-07-10T15:52:05.999Z,24.10
2018-07-10T15:54:34.315Z,23.90
2018-07-10T15:57:02.522Z,23.60
2018-07-10T15:59:31.750Z,23.50
2018-07-10T16:01:59.890Z,23.30
2018-07-10T16:04:28.979Z,23.30
2018-07-10T16:06:57.178Z,23.00
2018-07-10T16:09:25.370Z,23.00
2018-07-10T16:11:58.171Z,22.90
2018-07-10T16:14:44.894Z,22.90
2018-07-10T16:17:28.156Z,23.00
2018-07-10T16:20:14.946Z,22.90
2018-07-10T16:22:45.980Z,22.90
